Main page
METAR-TAF:

METAR-TAF

Airports :

Amman Civil Airport

Amman, Jordan

latitude: 31-59N, longitude: 035-59E, elevation: 767 m

Current weather observation

The report was made 22 minutes ago, at 02:00 UTC
Wind 8 kt from the Southeast
Temperature 8°C
Humidity 25%
Pressure 1021 hPa
Visibility 10 km or more
no clouds below 1500 m and no cumulonimbus

METAR: OJAM 010200Z 14008KT CAVOK 08/M11 Q1021 NOSIG

Time: 04:22 (02:22 UTC)

Forecast

The report was made 3 hours and 22 minutes ago, at 23:00 UTC
Forecast valid from 01 at 00 UTC to 02 at 06 UTC
Wind 12 kt from the East/Southeast
Visibility: 6000 m
Temporary
from 01 at 07 UTC to 01 at 15 UTC
Wind 20 kt from the East
Visibility: 3000 m
Blowing dust,

TAF: OJAM 292300Z 0100/0206 12012KT 6000 NSC TEMPO 0107/0115 10020KT 3000 BLDU

Weather observations and forecasts of more than 4000 airports (METAR and TAF reports).

The available stations are represented by yellow and red dots on the map.

Hover mouse over dot to see the name of the station.

Then click to see weather observations and forecasts.

To change the map : click on the green buttons with a black cross to zoom in, on the green button with a dash to zoom out, or on the green arrows for adjacent maps.


METAR-TAF: